sensor_id;sensor_type;location;lat;lon;timestamp;temperature;humidity
1405;DHT22;697;51.114;6.542;2022-11-04T00:02:03;12.40;96.10
1405;DHT22;697;51.114;6.542;2022-11-04T00:04:30;12.30;96.00
1405;DHT22;697;51.114;6.542;2022-11-04T00:06:57;12.30;96.10
1405;DHT22;697;51.114;6.542;2022-11-04T00:09:25;12.30;96.20
1405;DHT22;697;51.114;6.542;2022-11-04T00:11:53;12.40;96.30
1405;DHT22;697;51.114;6.542;2022-11-04T00:14:38;12.40;96.10
1405;DHT22;697;51.114;6.542;2022-11-04T00:17:09;12.50;95.90
1405;DHT22;697;51.114;6.542;2022-11-04T00:19:47;12.50;96.00
1405;DHT22;697;51.114;6.542;2022-11-04T00:22:31;12.50;95.90
1405;DHT22;697;51.114;6.542;2022-11-04T00:25:16;12.50;95.90
1405;DHT22;697;51.114;6.542;2022-11-04T00:28:02;12.40;96.10
1405;DHT22;697;51.114;6.542;2022-11-04T00:30:51;12.40;96.40
1405;DHT22;697;51.114;6.542;2022-11-04T00:33:18;12.50;96.50
1405;DHT22;697;51.114;6.542;2022-11-04T00:35:51;12.50;96.50
1405;DHT22;697;51.114;6.542;2022-11-04T00:38:18;12.50;96.60
1405;DHT22;697;51.114;6.542;2022-11-04T00:40:45;12.50;96.50
1405;DHT22;697;51.114;6.542;2022-11-04T00:43:11;12.50;96.70
1405;DHT22;697;51.114;6.542;2022-11-04T00:45:39;12.50;96.80
1405;DHT22;697;51.114;6.542;2022-11-04T00:48:08;12.60;97.00
1405;DHT22;697;51.114;6.542;2022-11-04T00:50:35;12.50;97.10
1405;DHT22;697;51.114;6.542;2022-11-04T00:53:02;12.60;96.90
1405;DHT22;697;51.114;6.542;2022-11-04T00:55:29;12.60;96.80
1405;DHT22;697;51.114;6.542;2022-11-04T00:57:57;12.60;96.90
1405;DHT22;697;51.114;6.542;2022-11-04T01:00:24;12.60;96.80
1405;DHT22;697;51.114;6.542;2022-11-04T01:02:51;12.60;96.90
1405;DHT22;697;51.114;6.542;2022-11-04T01:05:19;12.60;97.00
1405;DHT22;697;51.114;6.542;2022-11-04T01:07:46;12.60;96.50
1405;DHT22;697;51.114;6.542;2022-11-04T01:10:12;12.60;96.60
1405;DHT22;697;51.114;6.542;2022-11-04T01:12:39;12.50;96.20
1405;DHT22;697;51.114;6.542;2022-11-04T01:15:06;12.50;95.90
1405;DHT22;697;51.114;6.542;2022-11-04T01:17:33;12.50;96.00
1405;DHT22;697;51.114;6.542;2022-11-04T01:20:00;12.40;96.00
1405;DHT22;697;51.114;6.542;2022-11-04T01:22:29;12.40;96.20
1405;DHT22;697;51.114;6.542;2022-11-04T01:24:56;12.40;96.20
1405;DHT22;697;51.114;6.542;2022-11-04T01:27:22;12.40;96.10
1405;DHT22;697;51.114;6.542;2022-11-04T01:29:49;12.30;96.10
1405;DHT22;697;51.114;6.542;2022-11-04T01:32:16;12.40;96.10
1405;DHT22;697;51.114;6.542;2022-11-04T01:34:42;12.30;96.00
1405;DHT22;697;51.114;6.542;2022-11-04T01:37:09;12.40;96.00
1405;DHT22;697;51.114;6.542;2022-11-04T01:39:37;12.40;95.90
1405;DHT22;697;51.114;6.542;2022-11-04T01:42:04;12.40;95.80
1405;DHT22;697;51.114;6.542;2022-11-04T01:44:51;12.50;95.70
1405;DHT22;697;51.114;6.542;2022-11-04T01:47:20;12.50;95.60
1405;DHT22;697;51.114;6.542;2022-11-04T01:49:51;12.40;95.50
1405;DHT22;697;51.114;6.542;2022-11-04T01:52:25;12.40;95.50
1405;DHT22;697;51.114;6.542;2022-11-04T01:54:57;12.40;95.50
1405;DHT22;697;51.114;6.542;2022-11-04T01:57:29;12.40;95.50
1405;DHT22;697;51.114;6.542;2022-11-04T02:00:00;12.40;95.30
1405;DHT22;697;51.114;6.542;2022-11-04T02:02:27;12.40;95.20
1405;DHT22;697;51.114;6.542;2022-11-04T02:04:54;12.30;95.10
1405;DHT22;697;51.114;6.542;2022-11-04T02:07:22;12.30;95.20
1405;DHT22;697;51.114;6.542;2022-11-04T02:09:49;12.30;95.00
1405;DHT22;697;51.114;6.542;2022-11-04T02:12:18;12.30;95.10
1405;DHT22;697;51.114;6.542;2022-11-04T02:15:03;12.20;95.00
1405;DHT22;697;51.114;6.542;2022-11-04T02:17:39;12.20;95.20
1405;DHT22;697;51.114;6.542;2022-11-04T02:20:22;12.10;95.10
1405;DHT22;697;51.114;6.542;2022-11-04T02:23:14;12.10;95.20
1405;DHT22;697;51.114;6.542;2022-11-04T02:26:04;12.10;95.10
1405;DHT22;697;51.114;6.542;2022-11-04T02:31:50;12.00;95.20
1405;DHT22;697;51.114;6.542;2022-11-04T02:34:23;12.00;95.10
1405;DHT22;697;51.114;6.542;2022-11-04T02:37:06;12.00;95.10
1405;DHT22;697;51.114;6.542;2022-11-04T02:39:39;12.00;95.10
1405;DHT22;697;51.114;6.542;2022-11-04T02:42:15;12.00;95.10
1405;DHT22;697;51.114;6.542;2022-11-04T02:44:50;12.00;95.00
1405;DHT22;697;51.114;6.542;2022-11-04T02:47:24;12.00;94.90
1405;DHT22;697;51.114;6.542;2022-11-04T02:49:58;12.00;94.90
1405;DHT22;697;51.114;6.542;2022-11-04T02:52:29;12.00;94.80
1405;DHT22;697;51.114;6.542;2022-11-04T02:55:03;12.00;94.90
1405;DHT22;697;51.114;6.542;2022-11-04T02:57:34;11.90;94.80
1405;DHT22;697;51.114;6.542;2022-11-04T03:00:04;11.90;94.80
1405;DHT22;697;51.114;6.542;2022-11-04T03:02:36;11.80;95.00
1405;DHT22;697;51.114;6.542;2022-11-04T03:05:05;11.80;95.00
1405;DHT22;697;51.114;6.542;2022-11-04T03:07:36;11.80;95.00
1405;DHT22;697;51.114;6.542;2022-11-04T03:10:09;11.80;95.10
1405;DHT22;697;51.114;6.542;2022-11-04T03:12:41;11.80;95.10
1405;DHT22;697;51.114;6.542;2022-11-04T03:15:14;11.80;95.30
1405;DHT22;697;51.114;6.542;2022-11-04T03:17:51;11.80;95.00
1405;DHT22;697;51.114;6.542;2022-11-04T03:20:22;11.80;95.00
1405;DHT22;697;51.114;6.542;2022-11-04T03:22:50;11.80;95.00
1405;DHT22;697;51.114;6.542;2022-11-04T03:25:22;11.80;95.00
1405;DHT22;697;51.114;6.542;2022-11-04T03:27:57;11.70;94.90
1405;DHT22;697;51.114;6.542;2022-11-04T03:30:26;11.70;95.10
1405;DHT22;697;51.114;6.542;2022-11-04T03:33:04;11.70;95.10
1405;DHT22;697;51.114;6.542;2022-11-04T03:35:33;11.70;95.00
1405;DHT22;697;51.114;6.542;2022-11-04T03:38:00;11.70;95.10
1405;DHT22;697;51.114;6.542;2022-11-04T03:40:27;11.60;95.00
1405;DHT22;697;51.114;6.542;2022-11-04T03:42:58;11.60;95.10
1405;DHT22;697;51.114;6.542;2022-11-04T03:45:25;11.60;95.20
1405;DHT22;697;51.114;6.542;2022-11-04T03:47:53;11.60;95.10
1405;DHT22;697;51.114;6.542;2022-11-04T03:50:27;11.50;95.10
1405;DHT22;697;51.114;6.542;2022-11-04T03:52:55;11.60;95.00
1405;DHT22;697;51.114;6.542;2022-11-04T03:55:26;11.50;94.90
1405;DHT22;697;51.114;6.542;2022-11-04T03:57:58;11.60;94.90
1405;DHT22;697;51.114;6.542;2022-11-04T04:00:31;11.60;94.80
1405;DHT22;697;51.114;6.542;2022-11-04T04:03:04;11.50;94.70
1405;DHT22;697;51.114;6.542;2022-11-04T04:05:37;11.50;94.80
1405;DHT22;697;51.114;6.542;2022-11-04T04:08:12;11.50;94.70
1405;DHT22;697;51.114;6.542;2022-11-04T04:10:44;11.50;94.70
1405;DHT22;697;51.114;6.542;2022-11-04T04:13:23;11.40;94.80
1405;DHT22;697;51.114;6.542;2022-11-04T04:15:55;11.30;95.00
1405;DHT22;697;51.114;6.542;2022-11-04T04:18:29;11.40;95.00
1405;DHT22;697;51.114;6.542;2022-11-04T04:21:00;11.40;95.00
1405;DHT22;697;51.114;6.542;2022-11-04T04:23:29;11.40;95.00
1405;DHT22;697;51.114;6.542;2022-11-04T04:26:15;11.40;94.90
1405;DHT22;697;51.114;6.542;2022-11-04T04:29:02;11.40;94.80
1405;DHT22;697;51.114;6.542;2022-11-04T04:31:32;11.40;94.80
1405;DHT22;697;51.114;6.542;2022-11-04T04:34:17;11.40;94.80
1405;DHT22;697;51.114;6.542;2022-11-04T04:36:50;11.40;94.70
1405;DHT22;697;51.114;6.542;2022-11-04T04:39:20;11.40;94.60
1405;DHT22;697;51.114;6.542;2022-11-04T04:42:06;11.30;94.40
1405;DHT22;697;51.114;6.542;2022-11-04T04:44:51;11.30;94.40
1405;DHT22;697;51.114;6.542;2022-11-04T04:47:34;11.30;94.40
1405;DHT22;697;51.114;6.542;2022-11-04T04:50:01;11.40;94.40
1405;DHT22;697;51.114;6.542;2022-11-04T04:52:31;11.40;94.40
1405;DHT22;697;51.114;6.542;2022-11-04T04:54:59;11.30;94.40
1405;DHT22;697;51.114;6.542;2022-11-04T04:57:25;11.30;94.40
1405;DHT22;697;51.114;6.542;2022-11-04T04:59:52;11.20;94.40
1405;DHT22;697;51.114;6.542;2022-11-04T05:02:19;11.20;94.50
1405;DHT22;697;51.114;6.542;2022-11-04T05:04:46;11.10;94.60
1405;DHT22;697;51.114;6.542;2022-11-04T05:07:12;11.20;94.60
1405;DHT22;697;51.114;6.542;2022-11-04T05:09:40;11.20;94.60
1405;DHT22;697;51.114;6.542;2022-11-04T05:12:07;11.20;94.50
1405;DHT22;697;51.114;6.542;2022-11-04T05:14:34;11.20;94.40
1405;DHT22;697;51.114;6.542;2022-11-04T05:17:01;11.10;94.30
1405;DHT22;697;51.114;6.542;2022-11-04T05:19:28;11.10;94.40
1405;DHT22;697;51.114;6.542;2022-11-04T05:21:55;11.00;94.40
1405;DHT22;697;51.114;6.542;2022-11-04T05:24:21;11.10;94.50
1405;DHT22;697;51.114;6.542;2022-11-04T05:26:49;11.10;94.40
1405;DHT22;697;51.114;6.542;2022-11-04T05:29:16;11.10;94.10
1405;DHT22;697;51.114;6.542;2022-11-04T05:31:43;11.00;94.10
1405;DHT22;697;51.114;6.542;2022-11-04T05:34:10;11.00;94.20
1405;DHT22;697;51.114;6.542;2022-11-04T05:36:37;11.00;94.20
1405;DHT22;697;51.114;6.542;2022-11-04T05:39:04;11.00;94.20
1405;DHT22;697;51.114;6.542;2022-11-04T05:41:31;10.90;94.20
1405;DHT22;697;51.114;6.542;2022-11-04T05:44:01;10.90;94.30
1405;DHT22;697;51.114;6.542;2022-11-04T05:46:29;10.90;94.40
1405;DHT22;697;51.114;6.542;2022-11-04T05:48:56;10.80;94.30
1405;DHT22;697;51.114;6.542;2022-11-04T05:51:25;10.90;94.40
1405;DHT22;697;51.114;6.542;2022-11-04T05:53:52;10.90;94.20
1405;DHT22;697;51.114;6.542;2022-11-04T05:56:19;10.90;94.00
1405;DHT22;697;51.114;6.542;2022-11-04T05:58:45;10.80;94.20
1405;DHT22;697;51.114;6.542;2022-11-04T06:01:23;10.80;93.90
1405;DHT22;697;51.114;6.542;2022-11-04T06:03:50;10.80;93.90
1405;DHT22;697;51.114;6.542;2022-11-04T06:06:17;10.80;93.90
1405;DHT22;697;51.114;6.542;2022-11-04T06:08:44;10.80;93.90
1405;DHT22;697;51.114;6.542;2022-11-04T06:11:10;10.80;93.70
1405;DHT22;697;51.114;6.542;2022-11-04T06:13:37;10.80;93.40
1405;DHT22;697;51.114;6.542;2022-11-04T06:16:04;10.80;93.10
1405;DHT22;697;51.114;6.542;2022-11-04T06:18:33;10.80;92.90
1405;DHT22;697;51.114;6.542;2022-11-04T06:21:18;10.80;92.80
1405;DHT22;697;51.114;6.542;2022-11-04T06:23:47;10.80;92.60
1405;DHT22;697;51.114;6.542;2022-11-04T06:26:15;10.80;92.40
1405;DHT22;697;51.114;6.542;2022-11-04T06:28:42;10.80;92.30
1405;DHT22;697;51.114;6.542;2022-11-04T06:31:10;10.80;92.40
1405;DHT22;697;51.114;6.542;2022-11-04T06:33:39;10.80;92.40
1405;DHT22;697;51.114;6.542;2022-11-04T06:36:07;10.80;92.40
1405;DHT22;697;51.114;6.542;2022-11-04T06:38:35;10.80;92.40
1405;DHT22;697;51.114;6.542;2022-11-04T06:41:02;10.80;92.50
1405;DHT22;697;51.114;6.542;2022-11-04T06:43:29;10.80;92.50
1405;DHT22;697;51.114;6.542;2022-11-04T06:45:57;10.80;92.40
1405;DHT22;697;51.114;6.542;2022-11-04T06:48:24;10.80;92.50
1405;DHT22;697;51.114;6.542;2022-11-04T06:50:52;10.80;92.40
1405;DHT22;697;51.114;6.542;2022-11-04T06:53:19;10.80;92.40
1405;DHT22;697;51.114;6.542;2022-11-04T06:55:46;10.80;92.50
1405;DHT22;697;51.114;6.542;2022-11-04T06:58:12;10.80;92.70
1405;DHT22;697;51.114;6.542;2022-11-04T07:00:39;10.80;92.80
1405;DHT22;697;51.114;6.542;2022-11-04T07:03:07;10.80;93.00
1405;DHT22;697;51.114;6.542;2022-11-04T07:05:34;10.90;93.20
1405;DHT22;697;51.114;6.542;2022-11-04T07:08:02;10.90;93.40
1405;DHT22;697;51.114;6.542;2022-11-04T07:10:29;10.90;93.70
1405;DHT22;697;51.114;6.542;2022-11-04T07:12:56;10.90;94.00
1405;DHT22;697;51.114;6.542;2022-11-04T07:15:22;10.90;94.20
1405;DHT22;697;51.114;6.542;2022-11-04T07:17:49;10.90;94.30
1405;DHT22;697;51.114;6.542;2022-11-04T07:20:16;10.90;94.30
1405;DHT22;697;51.114;6.542;2022-11-04T07:22:43;10.90;94.50
1405;DHT22;697;51.114;6.542;2022-11-04T07:25:11;10.90;94.60
1405;DHT22;697;51.114;6.542;2022-11-04T07:27:37;11.00;94.70
1405;DHT22;697;51.114;6.542;2022-11-04T07:30:05;11.00;94.50
1405;DHT22;697;51.114;6.542;2022-11-04T07:32:32;11.10;94.50
1405;DHT22;697;51.114;6.542;2022-11-04T07:34:59;11.20;94.60
1405;DHT22;697;51.114;6.542;2022-11-04T07:37:26;11.30;94.80
1405;DHT22;697;51.114;6.542;2022-11-04T07:39:52;11.30;94.70
1405;DHT22;697;51.114;6.542;2022-11-04T07:42:20;11.30;94.70
1405;DHT22;697;51.114;6.542;2022-11-04T07:44:47;11.40;94.70
1405;DHT22;697;51.114;6.542;2022-11-04T07:47:14;11.40;94.70
1405;DHT22;697;51.114;6.542;2022-11-04T07:49:40;11.50;94.70
1405;DHT22;697;51.114;6.542;2022-11-04T07:52:07;11.60;94.60
1405;DHT22;697;51.114;6.542;2022-11-04T07:54:34;11.70;94.60
1405;DHT22;697;51.114;6.542;2022-11-04T07:57:01;11.70;94.50
1405;DHT22;697;51.114;6.542;2022-11-04T07:59:29;11.80;94.60
1405;DHT22;697;51.114;6.542;2022-11-04T08:01:56;11.80;94.50
1405;DHT22;697;51.114;6.542;2022-11-04T08:04:22;11.80;94.40
1405;DHT22;697;51.114;6.542;2022-11-04T08:06:49;11.80;94.40
1405;DHT22;697;51.114;6.542;2022-11-04T08:09:16;11.90;94.40
1405;DHT22;697;51.114;6.542;2022-11-04T08:11:42;11.90;94.40
1405;DHT22;697;51.114;6.542;2022-11-04T08:14:09;12.00;94.40
1405;DHT22;697;51.114;6.542;2022-11-04T08:16:38;12.10;94.40
1405;DHT22;697;51.114;6.542;2022-11-04T08:19:05;12.20;94.30
1405;DHT22;697;51.114;6.542;2022-11-04T08:21:32;12.20;94.20
1405;DHT22;697;51.114;6.542;2022-11-04T08:23:59;12.30;94.10
1405;DHT22;697;51.114;6.542;2022-11-04T08:26:28;12.30;94.00
1405;DHT22;697;51.114;6.542;2022-11-04T08:28:55;12.40;94.00
1405;DHT22;697;51.114;6.542;2022-11-04T08:31:24;12.40;93.80
1405;DHT22;697;51.114;6.542;2022-11-04T08:33:53;12.50;93.80
1405;DHT22;697;51.114;6.542;2022-11-04T08:36:24;12.50;93.80
1405;DHT22;697;51.114;6.542;2022-11-04T08:38:51;12.60;93.80
1405;DHT22;697;51.114;6.542;2022-11-04T08:41:20;12.60;93.80
1405;DHT22;697;51.114;6.542;2022-11-04T08:43:48;12.70;93.70
1405;DHT22;697;51.114;6.542;2022-11-04T08:46:15;12.70;93.30
1405;DHT22;697;51.114;6.542;2022-11-04T08:48:42;12.70;93.10
1405;DHT22;697;51.114;6.542;2022-11-04T08:51:13;12.70;93.10
1405;DHT22;697;51.114;6.542;2022-11-04T08:53:41;12.70;93.20
1405;DHT22;697;51.114;6.542;2022-11-04T08:56:10;12.80;93.20
1405;DHT22;697;51.114;6.542;2022-11-04T08:58:36;12.90;93.10
1405;DHT22;697;51.114;6.542;2022-11-04T09:01:04;12.90;92.80
1405;DHT22;697;51.114;6.542;2022-11-04T09:03:31;13.00;92.60
1405;DHT22;697;51.114;6.542;2022-11-04T09:05:59;13.10;92.50
1405;DHT22;697;51.114;6.542;2022-11-04T09:08:27;13.20;92.40
1405;DHT22;697;51.114;6.542;2022-11-04T09:10:54;13.30;92.10
1405;DHT22;697;51.114;6.542;2022-11-04T09:13:20;13.40;91.80
1405;DHT22;697;51.114;6.542;2022-11-04T09:15:47;13.50;91.80
1405;DHT22;697;51.114;6.542;2022-11-04T09:18:14;13.60;91.60
1405;DHT22;697;51.114;6.542;2022-11-04T09:54:24;15.20;87.90
1405;DHT22;697;51.114;6.542;2022-11-04T09:56:54;15.30;85.30
1405;DHT22;697;51.114;6.542;2022-11-04T09:59:26;15.30;84.90
1405;DHT22;697;51.114;6.542;2022-11-04T10:02:01;15.20;85.00
1405;DHT22;697;51.114;6.542;2022-11-04T10:04:41;15.10;85.60
1405;DHT22;697;51.114;6.542;2022-11-04T10:07:22;15.00;86.00
1405;DHT22;697;51.114;6.542;2022-11-04T10:10:02;14.90;86.20
1405;DHT22;697;51.114;6.542;2022-11-04T10:12:48;14.90;86.70
1405;DHT22;697;51.114;6.542;2022-11-04T10:18:22;14.80;87.20
1405;DHT22;697;51.114;6.542;2022-11-04T10:20:57;14.80;87.10
1405;DHT22;697;51.114;6.542;2022-11-04T10:23:32;14.90;87.40
1405;DHT22;697;51.114;6.542;2022-11-04T10:26:11;14.90;86.60
1405;DHT22;697;51.114;6.542;2022-11-04T10:28:41;14.90;86.70
1405;DHT22;697;51.114;6.542;2022-11-04T10:31:11;15.10;87.00
1405;DHT22;697;51.114;6.542;2022-11-04T10:33:43;15.20;86.70
1405;DHT22;697;51.114;6.542;2022-11-04T10:36:11;15.30;85.70
1405;DHT22;697;51.114;6.542;2022-11-04T10:38:41;15.40;84.40
1405;DHT22;697;51.114;6.542;2022-11-04T10:41:22;15.60;84.00
1405;DHT22;697;51.114;6.542;2022-11-04T10:43:53;15.90;84.50
1405;DHT22;697;51.114;6.542;2022-11-04T10:46:30;16.20;84.60
1405;DHT22;697;51.114;6.542;2022-11-04T10:49:07;16.30;80.20
1405;DHT22;697;51.114;6.542;2022-11-04T10:51:43;16.30;80.40
1405;DHT22;697;51.114;6.542;2022-11-04T10:54:10;16.30;80.10
1405;DHT22;697;51.114;6.542;2022-11-04T10:56:41;16.30;79.90
1405;DHT22;697;51.114;6.542;2022-11-04T10:59:21;16.40;80.30
1405;DHT22;697;51.114;6.542;2022-11-04T11:01:51;16.50;78.00
1405;DHT22;697;51.114;6.542;2022-11-04T11:04:27;16.60;77.80
1405;DHT22;697;51.114;6.542;2022-11-04T11:06:56;16.70;77.00
1405;DHT22;697;51.114;6.542;2022-11-04T11:09:25;16.90;76.40
1405;DHT22;697;51.114;6.542;2022-11-04T11:11:57;17.00;75.00
1405;DHT22;697;51.114;6.542;2022-11-04T11:14:35;17.10;74.70
1405;DHT22;697;51.114;6.542;2022-11-04T11:17:20;17.10;73.50
1405;DHT22;697;51.114;6.542;2022-11-04T11:19:49;16.90;74.70
1405;DHT22;697;51.114;6.542;2022-11-04T11:22:30;16.70;74.90
1405;DHT22;697;51.114;6.542;2022-11-04T11:25:20;16.60;76.50
1405;DHT22;697;51.114;6.542;2022-11-04T11:27:52;16.50;77.00
1405;DHT22;697;51.114;6.542;2022-11-04T11:30:23;16.40;77.60
1405;DHT22;697;51.114;6.542;2022-11-04T11:32:52;16.30;78.30
1405;DHT22;697;51.114;6.542;2022-11-04T11:35:24;16.30;78.40
1405;DHT22;697;51.114;6.542;2022-11-04T11:37:54;16.20;78.70
1405;DHT22;697;51.114;6.542;2022-11-04T11:40:23;16.30;78.90
1405;DHT22;697;51.114;6.542;2022-11-04T11:42:52;16.30;78.70
1405;DHT22;697;51.114;6.542;2022-11-04T11:45:21;16.30;80.10
1405;DHT22;697;51.114;6.542;2022-11-04T11:47:50;16.40;79.00
1405;DHT22;697;51.114;6.542;2022-11-04T11:50:21;16.50;78.70
1405;DHT22;697;51.114;6.542;2022-11-04T11:52:51;16.50;78.10
1405;DHT22;697;51.114;6.542;2022-11-04T11:55:21;16.70;77.90
1405;DHT22;697;51.114;6.542;2022-11-04T11:57:59;16.90;77.80
1405;DHT22;697;51.114;6.542;2022-11-04T12:00:30;17.10;76.80
1405;DHT22;697;51.114;6.542;2022-11-04T12:03:01;17.20;75.80
1405;DHT22;697;51.114;6.542;2022-11-04T12:05:37;17.40;75.40
1405;DHT22;697;51.114;6.542;2022-11-04T12:08:20;17.60;75.10
1405;DHT22;697;51.114;6.542;2022-11-04T12:10:57;17.70;74.60
1405;DHT22;697;51.114;6.542;2022-11-04T12:13:28;17.90;74.20
1405;DHT22;697;51.114;6.542;2022-11-04T12:16:12;18.10;71.20
1405;DHT22;697;51.114;6.542;2022-11-04T12:19:08;18.10;70.50
1405;DHT22;697;51.114;6.542;2022-11-04T12:21:41;18.00;71.20
1405;DHT22;697;51.114;6.542;2022-11-04T12:24:20;17.80;71.70
1405;DHT22;697;51.114;6.542;2022-11-04T12:26:55;17.60;72.60
1405;DHT22;697;51.114;6.542;2022-11-04T12:29:39;17.40;73.30
1405;DHT22;697;51.114;6.542;2022-11-04T12:32:16;17.20;73.20
1405;DHT22;697;51.114;6.542;2022-11-04T12:35:00;17.10;74.00
1405;DHT22;697;51.114;6.542;2022-11-04T12:37:40;17.00;74.90
1405;DHT22;697;51.114;6.542;2022-11-04T12:40:14;16.90;75.40
1405;DHT22;697;51.114;6.542;2022-11-04T12:43:04;16.80;76.00
1405;DHT22;697;51.114;6.542;2022-11-04T12:49:30;16.80;77.00
1405;DHT22;697;51.114;6.542;2022-11-04T12:52:09;16.90;77.30
1405;DHT22;697;51.114;6.542;2022-11-04T12:54:47;17.00;77.40
1405;DHT22;697;51.114;6.542;2022-11-04T12:57:26;17.10;77.00
1405;DHT22;697;51.114;6.542;2022-11-04T13:00:04;17.30;76.70
1405;DHT22;697;51.114;6.542;2022-11-04T13:02:36;17.50;76.00
1405;DHT22;697;51.114;6.542;2022-11-04T13:05:14;17.70;75.20
1405;DHT22;697;51.114;6.542;2022-11-04T13:07:49;17.80;74.20
1405;DHT22;697;51.114;6.542;2022-11-04T13:10:21;17.90;71.70
1405;DHT22;697;51.114;6.542;2022-11-04T13:12:51;18.00;71.20
1405;DHT22;697;51.114;6.542;2022-11-04T13:15:22;17.90;70.80
1405;DHT22;697;51.114;6.542;2022-11-04T13:17:52;17.80;70.90
1405;DHT22;697;51.114;6.542;2022-11-04T13:20:30;17.80;71.10
1405;DHT22;697;51.114;6.542;2022-11-04T13:23:03;17.70;71.70
1405;DHT22;697;51.114;6.542;2022-11-04T13:25:35;17.60;72.10
1405;DHT22;697;51.114;6.542;2022-11-04T13:28:03;17.40;72.50
1405;DHT22;697;51.114;6.542;2022-11-04T13:30:36;17.20;73.00
1405;DHT22;697;51.114;6.542;2022-11-04T13:33:10;17.20;73.90
1405;DHT22;697;51.114;6.542;2022-11-04T13:35:48;17.20;74.60
1405;DHT22;697;51.114;6.542;2022-11-04T13:38:21;17.40;74.70
1405;DHT22;697;51.114;6.542;2022-11-04T13:40:56;17.50;74.10
1405;DHT22;697;51.114;6.542;2022-11-04T13:43:30;17.50;73.80
1405;DHT22;697;51.114;6.542;2022-11-04T13:46:23;17.40;73.90
1405;DHT22;697;51.114;6.542;2022-11-04T13:48:59;17.30;74.20
1405;DHT22;697;51.114;6.542;2022-11-04T13:51:40;17.30;74.40
1405;DHT22;697;51.114;6.542;2022-11-04T13:54:24;17.20;74.90
1405;DHT22;697;51.114;6.542;2022-11-04T13:57:03;17.20;75.40
1405;DHT22;697;51.114;6.542;2022-11-04T13:59:32;17.10;75.40
1405;DHT22;697;51.114;6.542;2022-11-04T14:02:23;17.10;75.40
1405;DHT22;697;51.114;6.542;2022-11-04T14:04:50;17.20;75.70
1405;DHT22;697;51.114;6.542;2022-11-04T14:10:38;17.20;75.20
1405;DHT22;697;51.114;6.542;2022-11-04T14:13:40;17.20;74.60
1405;DHT22;697;51.114;6.542;2022-11-04T14:16:10;17.20;74.90
1405;DHT22;697;51.114;6.542;2022-11-04T14:18:40;17.10;74.80
1405;DHT22;697;51.114;6.542;2022-11-04T14:21:08;16.90;75.10
1405;DHT22;697;51.114;6.542;2022-11-04T14:23:36;16.70;75.60
1405;DHT22;697;51.114;6.542;2022-11-04T14:26:07;16.50;76.40
1405;DHT22;697;51.114;6.542;2022-11-04T14:28:35;16.40;77.50
1405;DHT22;697;51.114;6.542;2022-11-04T14:31:03;16.30;78.30
1405;DHT22;697;51.114;6.542;2022-11-04T14:33:37;16.30;79.00
1405;DHT22;697;51.114;6.542;2022-11-04T14:36:29;16.20;78.90
1405;DHT22;697;51.114;6.542;2022-11-04T14:39:00;16.20;79.10
1405;DHT22;697;51.114;6.542;2022-11-04T14:41:54;16.10;79.40
1405;DHT22;697;51.114;6.542;2022-11-04T14:44:30;16.00;80.00
1405;DHT22;697;51.114;6.542;2022-11-04T14:46:59;16.00;80.50
1405;DHT22;697;51.114;6.542;2022-11-04T14:52:21;15.80;81.20
1405;DHT22;697;51.114;6.542;2022-11-04T14:54:48;15.70;81.70
1405;DHT22;697;51.114;6.542;2022-11-04T14:57:20;15.60;82.20
1405;DHT22;697;51.114;6.542;2022-11-04T14:59:48;15.60;82.70
1405;DHT22;697;51.114;6.542;2022-11-04T15:02:19;15.50;83.30
1405;DHT22;697;51.114;6.542;2022-11-04T15:04:50;15.40;83.60
1405;DHT22;697;51.114;6.542;2022-11-04T15:07:32;15.40;84.10
1405;DHT22;697;51.114;6.542;2022-11-04T15:10:00;15.30;84.40
1405;DHT22;697;51.114;6.542;2022-11-04T15:12:28;15.20;84.70
1405;DHT22;697;51.114;6.542;2022-11-04T15:15:26;15.10;85.00
1405;DHT22;697;51.114;6.542;2022-11-04T15:17:56;15.10;85.80
1405;DHT22;697;51.114;6.542;2022-11-04T15:20:26;15.00;86.20
1405;DHT22;697;51.114;6.542;2022-11-04T15:22:56;14.90;86.70
1405;DHT22;697;51.114;6.542;2022-11-04T15:25:24;14.80;87.00
1405;DHT22;697;51.114;6.542;2022-11-04T15:27:53;14.80;87.40
1405;DHT22;697;51.114;6.542;2022-11-04T15:30:21;14.70;87.60
1405;DHT22;697;51.114;6.542;2022-11-04T15:32:57;14.60;88.10
1405;DHT22;697;51.114;6.542;2022-11-04T15:35:25;14.60;88.60
1405;DHT22;697;51.114;6.542;2022-11-04T15:37:54;14.50;89.00
1405;DHT22;697;51.114;6.542;2022-11-04T15:40:22;14.40;89.30
1405;DHT22;697;51.114;6.542;2022-11-04T15:42:49;14.40;90.20
1405;DHT22;697;51.114;6.542;2022-11-04T15:45:29;14.40;90.10
1405;DHT22;697;51.114;6.542;2022-11-04T15:48:22;14.40;90.30
1405;DHT22;697;51.114;6.542;2022-11-04T15:53:45;14.20;90.60
1405;DHT22;697;51.114;6.542;2022-11-04T15:56:13;14.10;90.90
1405;DHT22;697;51.114;6.542;2022-11-04T15:58:40;14.00;90.50
1405;DHT22;697;51.114;6.542;2022-11-04T16:01:12;13.70;90.30
1405;DHT22;697;51.114;6.542;2022-11-04T16:03:39;13.60;90.50
1405;DHT22;697;51.114;6.542;2022-11-04T16:06:07;13.60;91.00
1405;DHT22;697;51.114;6.542;2022-11-04T16:08:34;13.50;91.30
1405;DHT22;697;51.114;6.542;2022-11-04T16:11:10;13.50;91.60
1405;DHT22;697;51.114;6.542;2022-11-04T16:13:38;13.50;92.00
1405;DHT22;697;51.114;6.542;2022-11-04T16:16:13;13.50;92.40
1405;DHT22;697;51.114;6.542;2022-11-04T16:18:43;13.50;92.60
1405;DHT22;697;51.114;6.542;2022-11-04T16:21:19;13.50;92.70
1405;DHT22;697;51.114;6.542;2022-11-04T16:23:50;13.50;92.80
1405;DHT22;697;51.114;6.542;2022-11-04T16:26:23;13.50;92.80
1405;DHT22;697;51.114;6.542;2022-11-04T16:28:52;13.50;92.90
1405;DHT22;697;51.114;6.542;2022-11-04T16:31:27;13.50;92.90
1405;DHT22;697;51.114;6.542;2022-11-04T16:33:57;13.50;93.00
1405;DHT22;697;51.114;6.542;2022-11-04T16:36:25;13.50;93.00
1405;DHT22;697;51.114;6.542;2022-11-04T16:38:53;13.40;93.00
1405;DHT22;697;51.114;6.542;2022-11-04T16:41:20;13.40;93.00
1405;DHT22;697;51.114;6.542;2022-11-04T16:43:48;13.30;92.90
1405;DHT22;697;51.114;6.542;2022-11-04T16:46:15;13.30;92.80
1405;DHT22;697;51.114;6.542;2022-11-04T16:48:44;13.30;92.60
1405;DHT22;697;51.114;6.542;2022-11-04T16:51:15;13.30;92.70
1405;DHT22;697;51.114;6.542;2022-11-04T16:53:43;13.20;92.80
1405;DHT22;697;51.114;6.542;2022-11-04T16:56:13;13.20;93.10
1405;DHT22;697;51.114;6.542;2022-11-04T16:58:40;13.20;93.30
1405;DHT22;697;51.114;6.542;2022-11-04T17:01:07;13.20;93.60
1405;DHT22;697;51.114;6.542;2022-11-04T17:03:37;13.20;93.60
1405;DHT22;697;51.114;6.542;2022-11-04T17:06:06;13.20;93.90
1405;DHT22;697;51.114;6.542;2022-11-04T17:08:33;13.20;94.10
1405;DHT22;697;51.114;6.542;2022-11-04T17:11:00;13.20;94.20
1405;DHT22;697;51.114;6.542;2022-11-04T17:13:27;13.10;94.20
1405;DHT22;697;51.114;6.542;2022-11-04T17:15:53;13.10;94.10
1405;DHT22;697;51.114;6.542;2022-11-04T17:18:20;13.10;94.00
1405;DHT22;697;51.114;6.542;2022-11-04T17:20:49;13.10;93.90
1405;DHT22;697;51.114;6.542;2022-11-04T17:23:18;13.10;93.80
1405;DHT22;697;51.114;6.542;2022-11-04T17:25:47;13.10;93.80
1405;DHT22;697;51.114;6.542;2022-11-04T17:28:14;13.10;93.80
1405;DHT22;697;51.114;6.542;2022-11-04T17:30:42;13.00;93.80
1405;DHT22;697;51.114;6.542;2022-11-04T17:33:11;13.00;93.90
1405;DHT22;697;51.114;6.542;2022-11-04T17:35:42;13.00;93.90
1405;DHT22;697;51.114;6.542;2022-11-04T17:38:10;12.90;93.90